Wainwright, AK

12:16 AM AKST on February 25, 2017 (GMT -0900)
Wiley Post-Will Rogers Memorial | | Change Station
Active Advisory: Winter Weather Advisory

Elev 43 ft 71.29 °N, 156.77 °W | Updated 23 minutes ago

Snow
Snow
-13 °F
Feels Like -37 °F
N
16
Wind Variable Wind from NE

Today
High -- | Low -- °F
--% Chance of Precip.
Yesterday
High -- | Low -- °F
Precip. -- in
Pressure 30.40 in
Visibility 3.0 miles
Clouds Mostly Cloudy 6500 ft
Overcast 8000 ft
Windchill -37 °F
Dew Point -20 °F
Humidity 71%
Rainfall 0.12 in
Snow Depth Not available.
9:17 AM 6:04 PM
Waning Crescent, 2% visible
METAR PABR 250853Z AUTO 05014KT 3SM -SN BKN065 OVC080 M25/M29 A3039 RMK AO2 UPB01E12B28E48SNE01B12E28B48 PRESRR SLP293 P0000 60000 T12501289 411941250 53032 TSNO
Pressure 30.40 in
Visibility 3.0 miles
Clouds Mostly Cloudy 6500 ft
Overcast 8000 ft
Windchill -37 °F
Dew Point -20 °F
Humidity 71%
Rainfall 0.12 in
Snow Depth Not available.
9:17 AM 6:04 PM
Waning Crescent, 2% visible
METAR PABR 250853Z AUTO 05014KT 3SM -SN BKN065 OVC080 M25/M29 A3039 RMK AO2 UPB01E12B28E48SNE01B12E28B48 PRESRR SLP293 P0000 60000 T12501289 411941250 53032 TSNO

Get Your Daily Forecast Email!

Thanks for signing up!

Be on the lookout for a verification email in your inbox.

You'll start receiving the daily forecast at 8 AM.

×

10-Day Weather Forecast

Almanac

Astronomy

Feb. 25, 2017 Rise Set
Actual Time
Civil Twilight
Nautical Twilight
Astronomical Twilight
Moon
Length of Visible Light
Length of Day
Tomorrow will be .
, % of the Moon is Illuminated

Today's Extremes

State Highs State Lows

Community

WunderPhotos

Upload Photos

1,962,540 photos uploaded!

WunderBlog® & News

Nearby

Air Quality

  Air Quality AQ Index Pollutant
Not available.

Snow Depth

Station Depth Elevation

Earthquake Activity

City Distance Mag. Time & Date
Minimum magnitude displayed is 2.5.

Coastal Water Temperatures

Place Temperature

Stations

Nearby Weather Stations

Station Location Temp. Windchill Dew Point Humidity Wind Precip. Elev Updated Type
                   

Watches & Warnings

Winter Weather Advisory
Issued: 5:41 PM AKST Feb. 24, 2017 – National Weather Service

... Winter Weather Advisory now in effect until noon akst Sunday...

* wind... east 15 to 30 mph with gusts to 40 mph.

* Blowing snow... reducing visibility to one half mile or less at
times.

* Snow... additional snowfall of 2 to 6 inches.

* Timing... snow and blowing snow diminishing this evening with
conditions improving. Winds and snow will increase in the
afternoon Saturday and conditions will deteriorate rapidly and
stay poor through Sunday.

* Impacts... visibility will be greatly reduced and snow will
accumulate into drifts. Whiteout conditions may occur. Travel
and outdoor activities will be difficult.

Precautionary/preparedness actions...

A Winter Weather Advisory means that one or more winter weather
hazards are expected to cause travel difficulties.